メインページ
METAR-TAF:

METAR-TAF

空港 :

ロンドン・ヒースロー空港, イングランド

緯度: 51-29N, 経度: 000-27W, 海抜: 24m

現時点の気象観測

当レポートは16分前の04:50(UTC)に作成
南/南西の風 11kt、から西/南西の間で変化する
気温 13°C
湿度 88%
気圧 1002 hPa
視程10km以上
高度2300ftの雲はほとんどない

METAR: EGLL 210450Z AUTO 21011KT 190V250 9999 FEW023 13/11 Q1002 TEMPO SHRA

時間: 06:06 (05:06 UTC)

予報

当レポートは1時間40分前の03:26(UTC)に作成
予報は21日の 03時(UTC)から 22日の 06時(UTC)まで有効
南/南西の風 14kt
視程10km以上
高度1200ftの千切れ雲あり
21日の 03時(UTC)から 21日の 05時(UTC)まで徐々に
高度3000ftの雲は散在している
21日の 03時(UTC)から 21日の 24時(UTC)まで一時的に
視程: 7000m
にわか雨
21日の 06時(UTC)から 21日の 09時(UTC)まで徐々に
南/南西の風 20kt、最大32ktの突風を伴う
確率 30% :
21日の 11時(UTC)から 21日の 17時(UTC)まで一時的に
南西の風 25kt、最大42ktの突風を伴う
視程: 4000m
高度1400ftの千切れ雲あり, 積乱雲.
激しいにわか雨
21日の 18時(UTC)から 21日の 21時(UTC)まで徐々に
西/南西の風 16kt、最大28ktの突風を伴う

TAF: EGLL 210326Z 2103/2206 20014KT 9999 BKN012 BECMG 2103/2105 SCT030 TEMPO 2103/2124 7000 SHRA BECMG 2106/2109 21020G32KT PROB30 TEMPO 2111/2117 22025G42KT 4000 +SHRA BKN014CB BECMG 2118/2121 24016G28KT

4,000以上の空港の気象観測と天気予報(METAR報とTAF報)

利用可能な観測所は地図上に黄色い丸と赤い丸で示す。

丸の上にカーソルを重ねると観測所名を参照できる。

次にクリックすると気象観測と天気予報を参照できる。

マップの切り替え:黒色「×」印の緑ボタンをクリックして拡大、「-」印の緑ボタンをクリックして縮小、緑色の三角印をクリックして隣りの地図に切り替え


METAR-TAF: